Time;durP1;ratioP1;P1;durP2;ratioP2;P2;SDS_P1;SDS_P2;PMS_P1;PMS_P2;Temp;Humidity;BMP_temperature;BMP_pressure;BME280_temperature;BME280_humidity;BME280_pressure;Samples;Min_cycle;Max_cycle;Signal;HPM_P1;HPM_P2
2022/07/04 00:00:03;;;;;;;1999.90;999.90;;;;;;;25.28;46.50;95579.16;5028426;28;20440;-67
2022/07/04 00:02:28;;;;;;;1999.90;999.90;;;;;;;24.68;47.31;95589.91;5029903;28;20386;-66
2022/07/04 00:04:53;;;;;;;1999.90;999.90;;;;;;;24.22;50.06;95591.25;5030785;28;20029;-67
2022/07/04 00:07:19;;;;;;;1999.90;999.90;;;;;;;23.89;53.36;95583.28;5029714;28;20036;-67
2022/07/04 00:09:44;;;;;;;1999.90;999.90;;;;;;;23.44;53.80;95571.69;5029129;28;20018;-67
2022/07/04 00:12:10;;;;;;;1999.90;999.90;;;;;;;22.29;58.46;95567.81;5030953;28;20117;-68
2022/07/04 00:14:35;;;;;;;1999.90;999.90;;;;;;;21.61;62.03;95585.03;5028853;28;20112;-66
2022/07/04 00:17:00;;;;;;;1999.90;999.90;;;;;;;21.46;63.36;95592.16;5028633;28;20112;-67
2022/07/04 00:19:25;;;;;;;1999.90;999.90;;;;;;;21.07;66.40;95572.53;5029771;28;20109;-67
2022/07/04 00:21:51;;;;;;;1999.90;999.90;;;;;;;20.91;67.54;95567.22;5030926;28;20072;-67
2022/07/04 00:24:16;;;;;;;1999.90;999.90;;;;;;;21.05;66.41;95572.13;5029357;28;20547;-66
2022/07/04 00:26:42;;;;;;;1999.90;999.90;;;;;;;21.51;65.83;95577.53;5031328;28;20037;-67
2022/07/04 00:29:07;;;;;;;1999.90;999.90;;;;;;;21.75;63.31;95577.13;5028168;28;20021;-66
2022/07/04 00:31:32;;;;;;;1999.90;999.90;;;;;;;22.24;63.03;95570.84;5029960;28;20394;-67
2022/07/04 00:33:58;;;;;;;1999.90;999.90;;;;;;;22.67;62.79;95576.75;5029106;28;20689;-66
2022/07/04 00:36:23;;;;;;;1999.90;999.90;;;;;;;22.60;61.49;95573.19;5030967;28;20026;-66
2022/07/04 00:38:48;;;;;;;1999.90;999.90;;;;;;;22.71;60.89;95563.25;5027302;28;20407;-66
2022/07/04 00:41:14;;;;;;;1999.90;999.90;;;;;;;22.55;60.56;95553.38;5030588;28;20061;-66
2022/07/04 00:43:39;;;;;;;1999.90;999.90;;;;;;;22.95;59.53;95543.75;5027412;28;20038;-67
2022/07/04 00:46:05;;;;;;;1999.90;999.90;;;;;;;22.84;59.45;95504.88;5029526;28;20053;-67
2022/07/04 00:48:31;;;;;;;1999.90;999.90;;;;;;;23.16;59.53;95531.53;5030650;28;20033;-66
2022/07/04 00:50:57;;;;;;;1999.90;999.90;;;;;;;23.44;58.80;95558.09;5029322;28;20051;-66
2022/07/04 00:53:23;;;;;;;1999.90;999.90;;;;;;;22.95;59.20;95580.97;5028953;28;20037;-67
2022/07/04 00:55:50;;;;;;;1999.90;999.90;;;;;;;22.94;59.20;95563.13;5028326;28;20024;-67
2022/07/04 00:58:19;;;;;;;1999.90;999.90;;;;;;;22.36;60.18;95577.16;5024174;28;20022;-66
2022/07/04 01:00:44;;;;;;;1999.90;999.90;;;;;;;22.67;58.87;95540.72;5029145;28;20026;-64
2022/07/04 01:03:10;;;;;;;1999.90;999.90;;;;;;;23.14;59.73;95588.91;5029255;28;20585;-67
2022/07/04 01:05:35;;;;;;;1999.90;999.90;;;;;;;23.21;58.53;95618.03;5029532;28;20044;-65
2022/07/04 01:08:01;;;;;;;1999.90;999.90;;;;;;;23.46;57.99;95593.81;5029140;28;20108;-67
2022/07/04 01:10:26;;;;;;;1999.90;999.90;;;;;;;23.55;58.38;95564.41;5028594;28;20068;-66
2022/07/04 01:12:52;;;;;;;1999.90;999.90;;;;;;;23.76;58.19;95566.53;5027456;28;20027;-67
2022/07/04 01:15:17;;;;;;;1999.90;999.90;;;;;;;23.81;57.97;95563.47;5027426;28;20397;-65
2022/07/04 01:17:42;;;;;;;1999.90;999.90;;;;;;;23.91;57.73;95586.41;5028402;28;20029;-66
2022/07/04 01:20:12;;;;;;;1999.90;999.90;;;;;;;23.98;56.79;95583.72;5028436;28;20474;-64
2022/07/04 01:22:37;;;;;;;1999.90;999.90;;;;;;;24.18;55.76;95574.13;5028661;28;20083;-67
2022/07/04 01:25:03;;;;;;;1999.90;999.90;;;;;;;24.01;56.08;95578.34;5030166;28;20029;-67
2022/07/04 01:27:28;;;;;;;1999.90;999.90;;;;;;;23.93;55.64;95565.06;5028344;28;20034;-68
2022/07/04 01:29:54;;;;;;;1999.90;999.90;;;;;;;23.98;55.64;95575.59;5027949;28;20025;-64
2022/07/04 01:32:20;;;;;;;1999.90;999.90;;;;;;;24.01;55.10;95586.47;5028824;28;20596;-64
2022/07/04 01:34:45;;;;;;;1999.90;999.90;;;;;;;24.01;54.93;95572.13;5028502;28;20028;-64
2022/07/04 01:37:10;;;;;;;1999.90;999.90;;;;;;;24.05;54.26;95572.91;5028929;28;20059;-64
2022/07/04 01:39:36;;;;;;;1999.90;999.90;;;;;;;24.00;54.28;95571.31;5029742;28;20048;-65
2022/07/04 01:42:01;;;;;;;1999.90;999.90;;;;;;;24.10;53.74;95559.72;5025780;28;20034;-65
2022/07/04 01:44:27;;;;;;;1999.90;999.90;;;;;;;24.16;54.07;95556.63;5025600;28;20038;-66
2022/07/04 01:46:52;;;;;;;1999.90;999.90;;;;;;;24.20;54.18;95550.06;5028025;28;20025;-66
2022/07/04 01:49:17;;;;;;;1999.90;999.90;;;;;;;24.07;54.04;95524.41;5028461;28;20033;-66
2022/07/04 01:51:44;;;;;;;1999.90;999.90;;;;;;;24.09;54.16;95522.84;5028552;28;20026;-66
2022/07/04 01:54:10;;;;;;;1999.90;999.90;;;;;;;24.22;53.78;95533.41;5027684;28;20060;-66
2022/07/04 01:56:35;;;;;;;1999.90;999.90;;;;;;;24.20;53.05;95522.88;5027823;28;20466;-65
2022/07/04 01:59:03;;;;;;;1999.90;999.90;;;;;;;24.25;53.07;95510.88;5026566;28;20025;-65
2022/07/04 02:01:31;;;;;;;1999.90;999.90;;;;;;;24.12;52.68;95500.34;5026677;28;20030;-66
2022/07/04 02:03:58;;;;;;;1999.90;999.90;;;;;;;24.29;52.37;95508.94;5029607;28;20026;-65
2022/07/04 02:06:23;;;;;;;1999.90;999.90;;;;;;;24.31;52.38;95487.59;5027157;28;20122;-65
2022/07/04 02:13:00;;;;;;;1999.90;999.90;;;;;;;24.41;51.43;95499.69;5028154;28;20451;-65
2022/07/04 02:14:19;;;;;;;1999.90;999.90;;;;;;;24.45;51.69;95501.25;5026259;28;20045;-66
2022/07/04 02:16:44;;;;;;;1999.90;999.90;;;;;;;24.21;50.93;95512.78;5025437;28;20080;-66
2022/07/04 02:19:10;;;;;;;1999.90;999.90;;;;;;;23.86;51.49;95519.63;5027173;28;20143;-65
2022/07/04 02:21:35;;;;;;;1999.90;999.90;;;;;;;23.55;52.27;95529.13;5028842;28;20030;-66
2022/07/04 02:24:00;;;;;;;1999.90;999.90;;;;;;;23.96;51.91;95540.66;5028575;28;20032;-66
2022/07/04 02:26:25;;;;;;;1999.90;999.90;;;;;;;24.08;51.20;95534.88;5028103;28;20037;-65
2022/07/04 02:28:52;;;;;;;1999.90;999.90;;;;;;;24.24;50.94;95526.41;5027132;28;20116;-65
2022/07/04 02:31:17;;;;;;;1999.90;999.90;;;;;;;24.17;51.37;95525.59;5026101;28;20029;-65
2022/07/04 02:33:43;;;;;;;1999.90;999.90;;;;;;;24.30;50.86;95524.88;5025120;28;20393;-65
2022/07/04 02:36:08;;;;;;;1999.90;999.90;;;;;;;24.35;51.19;95512.84;5025926;28;20025;-66
2022/07/04 02:38:33;;;;;;;1999.90;999.90;;;;;;;24.49;51.02;95523.03;5026816;28;20040;-67
2022/07/04 02:40:59;;;;;;;1999.90;999.90;;;;;;;24.44;51.45;95520.69;5028714;28;20034;-65
2022/07/04 02:43:24;;;;;;;1999.90;999.90;;;;;;;24.16;51.26;95489.50;5026212;28;20064;-65
2022/07/04 02:45:49;;;;;;;1999.90;999.90;;;;;;;24.25;50.30;95530.66;5018074;28;20041;-66
2022/07/04 02:48:15;;;;;;;1999.90;999.90;;;;;;;24.12;51.16;95527.53;5027962;28;20074;-66
2022/07/04 02:50:40;;;;;;;1999.90;999.90;;;;;;;24.11;51.17;95544.22;5027868;28;20051;-66
2022/07/04 02:53:05;;;;;;;1999.90;999.90;;;;;;;23.86;51.40;95514.97;5028665;28;20040;-65
2022/07/04 02:55:31;;;;;;;1999.90;999.90;;;;;;;24.02;51.87;95546.50;5025464;28;20037;-65
2022/07/04 02:57:56;;;;;;;1999.90;999.90;;;;;;;23.94;52.17;95547.59;5026307;28;20021;-65
2022/07/04 03:00:21;;;;;;;1999.90;999.90;;;;;;;23.79;52.00;95527.72;5027551;28;20100;-65
2022/07/04 03:02:47;;;;;;;1999.90;999.90;;;;;;;23.82;52.79;95562.28;5027466;28;20725;-65
2022/07/04 03:05:12;;;;;;;1999.90;999.90;;;;;;;23.79;52.65;95554.88;5027610;28;20032;-65
2022/07/04 03:07:37;;;;;;;1999.90;999.90;;;;;;;23.75;53.44;95546.75;5028088;28;20180;-65
2022/07/04 03:10:03;;;;;;;1999.90;999.90;;;;;;;23.66;53.64;95538.16;5030439;28;20029;-65
2022/07/04 03:12:28;;;;;;;1999.90;999.90;;;;;;;23.71;54.29;95545.16;5030316;28;20033;-66
2022/07/04 03:14:53;;;;;;;1999.90;999.90;;;;;;;23.66;54.05;95553.66;5030597;28;20025;-65
2022/07/04 03:17:19;;;;;;;1999.90;999.90;;;;;;;23.51;54.14;95537.22;5030149;28;20488;-65
2022/07/04 03:19:45;;;;;;;1999.90;999.90;;;;;;;23.59;54.78;95544.25;5032158;28;20033;-66
2022/07/04 03:22:10;;;;;;;1999.90;999.90;;;;;;;23.50;55.27;95530.25;5030928;28;20087;-66
2022/07/04 03:24:35;;;;;;;1999.90;999.90;;;;;;;23.33;55.07;95536.31;5031414;28;20032;-65
2022/07/04 03:27:01;;;;;;;1999.90;999.90;;;;;;;23.51;55.27;95550.03;5029534;28;20026;-65
2022/07/04 03:29:26;;;;;;;1999.90;999.90;;;;;;;23.32;56.34;95554.53;5029849;28;20112;-66
2022/07/04 03:31:51;;;;;;;1999.90;999.90;;;;;;;22.86;56.19;95553.31;5029720;28;20025;-65
2022/07/04 03:34:17;;;;;;;1999.90;999.90;;;;;;;23.31;55.84;95587.50;5029871;28;20128;-66
2022/07/04 03:36:42;;;;;;;1999.90;999.90;;;;;;;23.38;55.93;95571.25;5031753;28;20466;-65
2022/07/04 03:39:07;;;;;;;1999.90;999.90;;;;;;;23.37;56.02;95553.41;5030082;28;20698;-66
2022/07/04 03:41:33;;;;;;;1999.90;999.90;;;;;;;23.61;55.73;95571.81;5029554;28;20116;-65
2022/07/04 03:43:58;;;;;;;1999.90;999.90;;;;;;;23.77;56.02;95582.44;5029558;28;20079;-66
2022/07/04 03:46:24;;;;;;;1999.90;999.90;;;;;;;23.90;55.97;95573.97;5031220;28;20033;-66
2022/07/04 03:48:49;;;;;;;1999.90;999.90;;;;;;;23.97;55.03;95579.47;5030617;28;20097;-66
2022/07/04 03:51:15;;;;;;;1999.90;999.90;;;;;;;23.92;54.67;95566.25;5030488;28;20430;-66
2022/07/04 03:53:41;;;;;;;1999.90;999.90;;;;;;;24.20;54.52;95598.22;5030367;28;20033;-66
2022/07/04 03:56:08;;;;;;;1999.90;999.90;;;;;;;23.81;54.99;95577.03;5030816;28;20380;-66
2022/07/04 03:58:33;;;;;;;1999.90;999.90;;;;;;;23.90;54.71;95598.41;5030739;28;20041;-66
2022/07/04 04:00:59;;;;;;;1999.90;999.90;;;;;;;23.81;54.53;95596.06;5030228;28;20025;-66
2022/07/04 04:06:08;;;;;;;1999.90;999.90;;;;;;;24.18;54.44;95600.53;5022841;28;20091;-66
2022/07/04 04:08:34;;;;;;;1999.90;999.90;;;;;;;24.30;54.26;95603.69;5030859;28;20026;-66
2022/07/04 04:10:59;;;;;;;1999.90;999.90;;;;;;;24.52;54.08;95631.81;5030205;28;20029;-66
2022/07/04 04:13:25;;;;;;;1999.90;999.90;;;;;;;24.09;54.69;95630.78;5031000;28;20034;-66
2022/07/04 04:15:50;;;;;;;1999.90;999.90;;;;;;;24.28;53.93;95641.38;5029301;28;20409;-66
2022/07/04 04:18:15;;;;;;;1999.90;999.90;;;;;;;24.09;53.90;95617.19;5031154;28;20056;-66
2022/07/04 04:20:40;;;;;;;1999.90;999.90;;;;;;;24.43;53.57;95636.81;5027890;28;20466;-66
2022/07/04 04:23:06;;;;;;;1999.90;999.90;;;;;;;24.51;53.30;95640.34;5031143;28;20033;-66
2022/07/04 04:25:32;;;;;;;1999.90;999.90;;;;;;;24.60;53.20;95632.63;5028538;28;20117;-66
2022/07/04 04:27:57;;;;;;;1999.90;999.90;;;;;;;24.81;53.86;95650.97;5028045;28;20034;-66
2022/07/04 04:30:22;;;;;;;1999.90;999.90;;;;;;;24.90;53.72;95629.63;5025945;28;20037;-66
2022/07/04 04:32:48;;;;;;;1999.90;999.90;;;;;;;25.19;53.46;95652.28;5030983;28;20021;-68
2022/07/04 04:35:13;;;;;;;1999.90;999.90;;;;;;;25.21;52.82;95625.44;5028845;28;20029;-66
2022/07/04 04:37:38;;;;;;;1999.90;999.90;;;;;;;25.37;52.87;95631.31;5030520;28;20055;-66
2022/07/04 04:40:05;;;;;;;1999.90;999.90;;;;;;;25.59;52.28;95640.28;5027928;28;20041;-66
2022/07/04 04:42:30;;;;;;;1999.90;999.90;;;;;;;25.63;51.76;95623.91;5029730;28;20052;-66
2022/07/04 04:44:55;;;;;;;1999.90;999.90;;;;;;;25.76;51.40;95614.22;5029864;28;20056;-66
2022/07/04 04:47:21;;;;;;;1999.90;999.90;;;;;;;25.82;50.78;95631.72;5012854;28;20032;-68
2022/07/04 04:49:47;;;;;;;1999.90;999.90;;;;;;;25.87;50.37;95655.88;5029649;28;20061;-66
2022/07/04 04:52:12;;;;;;;1999.90;999.90;;;;;;;25.73;51.18;95644.94;5030342;28;20370;-66
2022/07/04 04:54:38;;;;;;;1999.90;999.90;;;;;;;25.78;51.18;95649.25;5028413;28;20032;-66
2022/07/04 04:57:04;;;;;;;1999.90;999.90;;;;;;;25.86;51.11;95653.53;5028624;28;20498;-66
2022/07/04 04:59:30;;;;;;;1999.90;999.90;;;;;;;25.97;50.37;95665.22;5029201;28;20362;-66
2022/07/04 05:01:56;;;;;;;1999.90;999.90;;;;;;;25.87;51.38;95653.16;5029126;28;20036;-66
2022/07/04 05:04:22;;;;;;;1999.90;999.90;;;;;;;25.06;52.88;95698.13;5029774;28;20041;-66
2022/07/04 05:06:47;;;;;;;1999.90;999.90;;;;;;;25.32;52.54;95716.09;5030148;28;20033;-66
2022/07/04 05:09:12;;;;;;;1999.90;999.90;;;;;;;25.46;52.84;95699.00;5027742;28;20363;-66
2022/07/04 05:11:38;;;;;;;1999.90;999.90;;;;;;;25.54;52.01;95705.25;5027815;28;20082;-66
2022/07/04 05:14:03;;;;;;;1999.90;999.90;;;;;;;25.66;51.65;95716.56;5028284;28;20377;-66
2022/07/04 05:16:28;;;;;;;1999.90;999.90;;;;;;;25.57;51.13;95707.19;5029056;28;20033;-66
2022/07/04 05:18:54;;;;;;;1999.90;999.90;;;;;;;25.49;51.21;95698.25;5027650;28;20025;-69
2022/07/04 05:21:19;;;;;;;1999.90;999.90;;;;;;;25.41;50.88;95683.81;5029995;28;20458;-68
2022/07/04 05:23:45;;;;;;;1999.90;999.90;;;;;;;25.64;50.72;95699.03;5026913;28;20049;-68
2022/07/04 05:26:11;;;;;;;1999.90;999.90;;;;;;;25.41;50.56;95705.63;5028266;28;20036;-68
2022/07/04 05:28:36;;;;;;;1999.90;999.90;;;;;;;24.85;51.23;95693.34;5023620;28;20102;-68
2022/07/04 05:31:02;;;;;;;1999.90;999.90;;;;;;;25.04;51.12;95662.31;5028454;28;20489;-69
2022/07/04 05:33:27;;;;;;;1999.90;999.90;;;;;;;25.76;51.07;95706.88;5028056;28;20022;-70
2022/07/04 05:35:53;;;;;;;1999.90;999.90;;;;;;;25.62;50.73;95641.44;5030715;28;20064;-68
2022/07/04 05:38:19;;;;;;;1999.90;999.90;;;;;;;25.99;50.09;95664.81;5028764;28;20402;-67
2022/07/04 05:40:45;;;;;;;1999.90;999.90;;;;;;;26.17;49.10;95652.72;5028665;28;20172;-69
2022/07/04 05:43:11;;;;;;;1999.90;999.90;;;;;;;26.34;48.72;95661.25;5027861;28;20553;-69
2022/07/04 05:45:37;;;;;;;1999.90;999.90;;;;;;;26.42;48.43;95674.53;5028612;28;20018;-70
2022/07/04 05:48:03;;;;;;;1999.90;999.90;;;;;;;26.75;47.70;95721.59;5028410;28;20044;-69
2022/07/04 05:50:28;;;;;;;1999.90;999.90;;;;;;;26.56;47.36;95686.56;5028529;28;20130;-69
2022/07/04 05:52:54;;;;;;;1999.90;999.90;;;;;;;26.75;47.63;95718.88;5029906;28;20021;-70
2022/07/04 05:55:19;;;;;;;1999.90;999.90;;;;;;;26.61;48.21;95691.63;5025147;28;20514;-69
2022/07/04 05:57:44;;;;;;;1999.90;999.90;;;;;;;26.87;47.44;95739.50;5029566;28;20393;-69
2022/07/04 06:00:11;;;;;;;1999.90;999.90;;;;;;;26.82;48.18;95724.31;5029144;28;20061;-69
2022/07/04 06:02:37;;;;;;;1999.90;999.90;;;;;;;26.64;48.04;95731.75;5027876;28;20470;-70
2022/07/04 06:05:03;;;;;;;1999.90;999.90;;;;;;;26.43;49.44;95741.53;5029552;28;20156;-69
2022/07/04 06:07:28;;;;;;;1999.90;999.90;;;;;;;26.34;49.74;95740.34;5029333;28;20029;-69
2022/07/04 06:09:53;;;;;;;1999.90;999.90;;;;;;;26.15;49.35;95741.53;5029376;28;20032;-69
2022/07/04 06:12:19;;;;;;;1999.90;999.90;;;;;;;25.77;49.56;95702.97;5026503;28;20030;-69
2022/07/04 06:14:45;;;;;;;1999.90;999.90;;;;;;;25.76;49.53;95717.00;5028160;28;20134;-72
2022/07/04 06:17:11;;;;;;;1999.90;999.90;;;;;;;25.96;50.26;95736.47;5029891;28;20029;-72
2022/07/04 06:19:36;;;;;;;1999.90;999.90;;;;;;;26.00;50.23;95739.97;5030034;28;20308;-72
2022/07/04 06:22:02;;;;;;;1999.90;999.90;;;;;;;26.06;50.44;95717.41;5027826;28;20025;-72
2022/07/04 06:24:28;;;;;;;1999.90;999.90;;;;;;;25.71;50.33;95733.69;5028381;28;20032;-72
2022/07/04 06:26:53;;;;;;;1999.90;999.90;;;;;;;25.02;52.25;95726.47;5017085;28;20462;-70
2022/07/04 06:29:18;;;;;;;1999.90;999.90;;;;;;;25.23;52.28;95731.22;5015608;28;20056;-69
2022/07/04 06:31:44;;;;;;;1999.90;999.90;;;;;;;25.69;51.45;95744.97;5025842;28;20030;-70
2022/07/04 06:36:53;;;;;;;1999.90;999.90;;;;;;;25.76;51.15;95736.06;5029454;28;20036;-70
2022/07/04 06:39:19;;;;;;;1999.90;999.90;;;;;;;25.48;51.61;95701.34;5029211;28;20025;-69
2022/07/04 06:41:44;;;;;;;1999.90;999.90;;;;;;;26.08;50.79;95747.75;5027251;28;20136;-69
2022/07/04 06:44:09;;;;;;;1999.90;999.90;;;;;;;26.00;50.59;95723.59;5032943;28;20021;-68
2022/07/04 06:46:34;;;;;;;1999.90;999.90;;;;;;;26.17;50.53;95731.81;5033411;28;20030;-67
2022/07/04 06:49:00;;;;;;;1999.90;999.90;;;;;;;26.00;50.93;95678.06;5033115;28;20124;-68
2022/07/04 06:51:25;;;;;;;1999.90;999.90;;;;;;;26.46;49.70;95739.19;5030543;28;20022;-69
2022/07/04 06:53:51;;;;;;;1999.90;999.90;;;;;;;26.35;50.81;95747.34;5032411;28;20028;-69
2022/07/04 06:56:17;;;;;;;1999.90;999.90;;;;;;;26.29;50.39;95751.66;5034377;28;20398;-68
2022/07/04 06:58:42;;;;;;;1999.90;999.90;;;;;;;26.36;50.70;95744.25;5036405;28;20026;-68
2022/07/04 07:01:07;;;;;;;1999.90;999.90;;;;;;;26.52;50.25;95752.06;5033403;28;20029;-69
2022/07/04 07:03:33;;;;;;;1999.90;999.90;;;;;;;26.52;49.79;95745.84;5033608;28;20022;-69
2022/07/04 07:05:58;;;;;;;1999.90;999.90;;;;;;;26.36;50.18;95749.72;5030860;28;20026;-68
2022/07/04 07:08:24;;;;;;;1999.90;999.90;;;;;;;26.03;50.90;95761.00;5031812;28;20030;-69
2022/07/04 07:10:49;;;;;;;1999.90;999.90;;;;;;;26.30;51.15;95750.47;5030428;28;20036;-69
2022/07/04 07:13:14;;;;;;;1999.90;999.90;;;;;;;26.31;50.73;95762.94;5031201;28;20497;-69
2022/07/04 07:15:40;;;;;;;1999.90;999.90;;;;;;;25.98;51.39;95761.38;5033271;28;20067;-70
2022/07/04 07:18:06;;;;;;;1999.90;999.90;;;;;;;25.71;51.96;95769.91;5031456;28;20096;-67
2022/07/04 07:20:31;;;;;;;1999.90;999.90;;;;;;;25.92;52.22;95771.91;5032857;28;20038;-67
2022/07/04 07:22:57;;;;;;;1999.90;999.90;;;;;;;25.66;53.21;95781.94;5031941;28;20117;-68
2022/07/04 07:25:22;;;;;;;1999.90;999.90;;;;;;;25.44;52.64;95764.00;5033061;28;20044;-67
2022/07/04 07:27:48;;;;;;;1999.90;999.90;;;;;;;25.26;53.04;95769.38;5030415;28;20552;-67
2022/07/04 07:30:13;;;;;;;1999.90;999.90;;;;;;;24.77;54.59;95775.31;5032689;28;20025;-67
2022/07/04 07:32:39;;;;;;;1999.90;999.90;;;;;;;25.35;53.83;95766.28;5032095;28;20497;-67
2022/07/04 07:35:05;;;;;;;1999.90;999.90;;;;;;;25.96;53.01;95766.47;5032834;28;20021;-68
2022/07/04 07:37:30;;;;;;;1999.90;999.90;;;;;;;25.51;53.63;95774.13;5031068;28;20031;-68
2022/07/04 07:39:55;;;;;;;1999.90;999.90;;;;;;;25.71;52.42;95764.44;5031644;28;20427;-78
2022/07/04 07:42:23;;;;;;;1999.90;999.90;;;;;;;25.88;51.76;95769.16;5030227;28;20036;-69
2022/07/04 07:44:48;;;;;;;1999.90;999.90;;;;;;;26.23;51.71;95751.28;5031419;28;20086;-70
2022/07/04 07:47:15;;;;;;;1999.90;999.90;;;;;;;27.18;50.24;95737.88;5031330;28;20021;-70
2022/07/04 07:49:41;;;;;;;1999.90;999.90;;;;;;;27.81;48.85;95743.41;5032531;28;20143;-70
2022/07/04 07:52:06;;;;;;;1999.90;999.90;;;;;;;28.19;46.95;95720.44;5031921;28;20151;-71
2022/07/04 07:54:31;;;;;;;1999.90;999.90;;;;;;;28.76;45.63;95721.84;5030467;28;20184;-69
2022/07/04 07:56:57;;;;;;;1999.90;999.90;;;;;;;28.97;45.19;95724.41;5029281;28;20026;-69
2022/07/04 07:59:22;;;;;;;1999.90;999.90;;;;;;;29.38;44.60;95733.66;5031030;28;20078;-70
2022/07/04 08:01:47;;;;;;;1999.90;999.90;;;;;;;29.61;44.14;95725.56;5031937;28;20041;-71
2022/07/04 08:06:56;;;;;;;1999.90;999.90;;;;;;;30.28;42.12;95718.28;5031882;28;20041;-68
2022/07/04 08:09:22;;;;;;;1999.90;999.90;;;;;;;30.42;41.60;95711.75;5029609;28;20096;-67
2022/07/04 08:11:47;;;;;;;1999.90;999.90;;;;;;;30.65;40.33;95718.41;5028908;28;20041;-67
2022/07/04 08:14:13;;;;;;;1999.90;999.90;;;;;;;30.96;40.57;95716.28;5032101;28;20383;-67
2022/07/04 08:16:38;;;;;;;1999.90;999.90;;;;;;;31.08;40.55;95712.13;5032099;28;20032;-67
2022/07/04 08:19:03;;;;;;;1999.90;999.90;;;;;;;31.22;38.83;95704.38;5030583;28;20032;-67
2022/07/04 08:21:28;;;;;;;1999.90;999.90;;;;;;;31.11;38.88;95700.28;5031433;28;20040;-68
2022/07/04 08:23:54;;;;;;;1999.90;999.90;;;;;;;30.86;38.85;95692.53;5028316;28;20037;-67
2022/07/04 08:26:20;;;;;;;1999.90;999.90;;;;;;;30.47;39.17;95674.81;5028632;28;20037;-67
2022/07/04 08:28:45;;;;;;;1999.90;999.90;;;;;;;30.50;40.33;95685.72;5030860;28;20030;-67
2022/07/04 08:31:11;;;;;;;1999.90;999.90;;;;;;;30.64;39.63;95689.41;5029905;28;20067;-67
2022/07/04 08:33:36;;;;;;;1999.90;999.90;;;;;;;30.76;40.11;95686.06;5030135;28;20501;-67
2022/07/04 08:36:03;;;;;;;1999.90;999.90;;;;;;;30.58;39.29;95688.34;5023566;28;20029;-66
2022/07/04 08:38:29;;;;;;;1999.90;999.90;;;;;;;29.95;40.41;95698.03;5023618;28;20500;-67
2022/07/04 08:41:02;;;;;;;1999.90;999.90;;;;;;;29.87;41.33;95691.09;5028754;28;20108;-67
2022/07/04 08:43:32;;;;;;;1999.90;999.90;;;;;;;29.68;40.84;95695.28;5028742;28;20549;-67
2022/07/04 08:45:59;;;;;;;1999.90;999.90;;;;;;;29.45;41.21;95690.53;5031415;28;20032;-66
2022/07/04 08:48:26;;;;;;;1999.90;999.90;;;;;;;29.44;42.15;95683.50;5027602;28;20808;-66
2022/07/04 08:51:14;;;;;;;1999.90;999.90;;;;;;;29.12;40.96;95694.84;5029257;28;20577;-66
2022/07/04 08:53:56;;;;;;;1999.90;999.90;;;;;;;29.01;41.10;95678.56;5030664;28;20664;-67
2022/07/04 08:59:07;;;;;;;1999.90;999.90;;;;;;;29.18;42.34;95685.03;5030845;28;20354;-66
2022/07/04 09:01:33;;;;;;;1999.90;999.90;;;;;;;28.47;42.59;95675.66;5030343;28;20036;-66
2022/07/04 09:04:00;;;;;;;1999.90;999.90;;;;;;;28.68;41.97;95682.06;5030889;28;20125;-67
2022/07/04 09:06:27;;;;;;;1999.90;999.90;;;;;;;27.52;42.71;95680.69;5018225;28;20524;-66
2022/07/04 09:08:53;;;;;;;1999.90;999.90;;;;;;;27.97;42.96;95673.34;5040438;28;20032;-67
2022/07/04 09:11:18;;;;;;;1999.90;999.90;;;;;;;28.51;42.08;95664.69;5023928;28;20039;-66
2022/07/04 09:13:43;;;;;;;1999.90;999.90;;;;;;;29.10;41.25;95663.59;5024086;28;20037;-67
2022/07/04 09:16:09;;;;;;;1999.90;999.90;;;;;;;29.47;40.26;95682.66;5026050;28;20022;-67
2022/07/04 09:18:36;;;;;;;1999.90;999.90;;;;;;;30.10;38.54;95676.63;5016181;28;20108;-70
2022/07/04 09:21:04;;;;;;;1999.90;999.90;;;;;;;29.68;39.16;95702.75;5030311;28;20143;-66
2022/07/04 09:23:33;;;;;;;1999.90;999.90;;;;;;;28.67;40.72;95696.97;5029693;28;20018;-68
2022/07/04 09:26:34;;;;;;;1999.90;999.90;;;;;;;27.03;42.62;95706.31;5026523;28;20513;-69
2022/07/04 09:28:59;;;;;;;1999.90;999.90;;;;;;;27.58;41.76;95705.63;5041287;28;20037;-68
2022/07/04 09:31:25;;;;;;;1999.90;999.90;;;;;;;28.75;39.53;95692.94;5023978;28;20372;-70
2022/07/04 09:33:52;;;;;;;1999.90;999.90;;;;;;;29.92;38.47;95690.63;5027906;28;20116;-69
2022/07/04 09:36:21;;;;;;;1999.90;999.90;;;;;;;29.55;38.09;95693.56;5026776;28;20466;-70
2022/07/04 09:39:04;;;;;;;1999.90;999.90;;;;;;;27.90;41.08;95678.88;5028724;28;20035;-68
2022/07/04 09:41:35;;;;;;;1999.90;999.90;;;;;;;27.84;41.63;95704.31;5026206;28;20075;-73
2022/07/04 09:44:05;;;;;;;;;;;;;;;28.12;41.24;95695.88;5028484;28;20022;-70
2022/07/04 09:46:32;;;;;;;1999.90;999.90;;;;;;;29.45;39.20;95679.56;5026259;28;20290;-70
2022/07/04 09:48:57;;;;;;;1999.90;999.90;;;;;;;28.05;41.28;95685.03;5022734;28;20057;-69
2022/07/04 09:51:38;;;;;;;1999.90;999.90;;;;;;;28.85;39.45;95692.03;5023068;28;20423;-70
2022/07/04 09:54:18;;;;;;;1999.90;999.90;;;;;;;29.83;38.16;95679.41;5034622;28;20505;-70
2022/07/04 09:56:48;;;;;;;1999.90;999.90;;;;;;;29.28;39.01;95699.78;5027746;28;20120;-69
2022/07/04 09:59:13;;;;;;;1999.90;999.90;;;;;;;29.33;38.37;95688.34;5024496;28;20104;-69
2022/07/04 10:01:39;;;;;;;1999.90;999.90;;;;;;;28.83;38.51;95642.41;5026338;28;20662;-69
2022/07/04 10:04:06;;;;;;;1999.90;999.90;;;;;;;29.54;38.02;95668.13;5024863;28;20478;-70
2022/07/04 10:06:32;;;;;;;1999.90;999.90;;;;;;;29.75;37.09;95688.94;5040638;28;20033;-72
2022/07/04 10:09:28;;;;;;;1999.90;999.90;;;;;;;31.15;36.38;95677.03;5030170;28;20775;-64
2022/07/04 10:11:53;;;;;;;1999.90;999.90;;;;;;;31.77;34.48;95677.25;5018136;28;20077;-64
2022/07/04 10:14:19;;;;;;;1999.90;999.90;;;;;;;32.34;33.80;95673.88;5027489;28;20075;-67
2022/07/04 10:16:44;;;;;;;1999.90;999.90;;;;;;;32.45;32.44;95670.91;5028316;28;20075;-65
2022/07/04 10:19:12;;;;;;;1999.90;999.90;;;;;;;33.01;31.94;95636.69;5061148;22;20045;-68
2022/07/04 10:21:37;;;;;;;1999.90;999.90;;;;;;;33.59;31.24;95684.22;5065204;28;20029;-70
2022/07/04 10:24:03;;;;;;;1999.90;999.90;;;;;;;33.64;30.33;95677.38;5062599;28;20108;-70
2022/07/04 10:26:29;;;;;;;1999.90;999.90;;;;;;;34.21;30.45;95669.25;5065690;28;20028;-70
2022/07/04 10:28:55;;;;;;;1999.90;999.90;;;;;;;34.73;29.82;95693.53;5052962;28;20016;-68
2022/07/04 10:31:23;;;;;;;1999.90;999.90;;;;;;;34.89;29.56;95679.50;5058277;28;20037;-69
2022/07/04 10:33:49;;;;;;;1999.90;999.90;;;;;;;34.34;29.71;95692.84;5068512;28;20100;-69
2022/07/04 10:36:30;;;;;;;1999.90;999.90;;;;;;;34.71;28.81;95695.22;5059097;28;20024;-69
2022/07/04 10:39:01;;;;;;;1999.90;999.90;;;;;;;35.12;28.35;95694.16;5061097;28;20100;-70
2022/07/04 10:41:28;;;;;;;1999.90;999.90;;;;;;;35.36;28.63;95686.13;5056305;28;20053;-69
2022/07/04 10:43:57;;;;;;;1999.90;999.90;;;;;;;35.79;27.82;95692.81;5053664;28;20040;-70
2022/07/04 10:46:32;;;;;;;1999.90;999.90;;;;;;;35.96;27.53;95687.81;5047812;28;20108;-69
2022/07/04 10:49:04;;;;;;;1999.90;999.90;;;;;;;35.92;26.56;95690.69;5049075;28;20082;-72
2022/07/04 10:51:48;;;;;;;1999.90;999.90;;;;;;;35.60;27.38;95684.41;5047650;28;20033;-68
2022/07/04 10:54:37;;;;;;;1999.90;999.90;;;;;;;35.66;28.03;95679.81;5055382;28;20034;-68
2022/07/04 10:57:11;;;;;;;1999.90;999.90;;;;;;;35.80;27.63;95680.50;5066190;28;20416;-68
2022/07/04 10:59:36;;;;;;;1999.90;999.90;;;;;;;35.40;28.17;95648.78;5052291;28;20035;-68
2022/07/04 11:02:10;;;;;;;1999.90;999.90;;;;;;;35.63;27.91;95674.44;5048805;28;20025;-70
2022/07/04 11:04:48;;;;;;;1999.90;999.90;;;;;;;32.22;30.74;95682.09;5048541;28;20027;-71